Estación Meteorológica Peña el Pijo (Robertgarden) [ 01/30/23 14:48:44 CET ]

Fecha Hora Presion(HPa) Temp (°C) Humedad % Rocio (°C) Viento ( m/s) Direccion Lluvia 1Hora(mm) Lluvia 24H(mm) LLuvia Total(mm)
2012-Aug-18 01:01:13 1015.200 20.2 52 10.0         176.12
2012-Aug-18 02:01:14 1015.500 19.1 55 9.8         176.12
2012-Aug-18 03:01:50 1014.800 19.1 54 9.6         176.12
2012-Aug-18 04:03:31 1014.300 17.9 59 9.7         176.12
2012-Aug-18 05:01:14 1014.300 17.1 60 9.3         176.12
2012-Aug-18 06:01:17 1014.100 16.9 55 7.8         176.12
2012-Aug-18 07:01:13 1014.300 16.4 54 7.0         176.12
2012-Aug-18 08:01:12 1014.600 16.7 51 6.5         176.12
2012-Aug-18 09:01:22 1014.700 18.5 51 8.2         176.12
2012-Aug-18 10:01:14 1014.800 24.1 48 12.4         176.12
2012-Aug-18 11:01:19 1014.700 29.3 39 13.9         176.12
2012-Aug-18 12:01:17 1014.900 32.2 27 10.7         176.12
2012-Aug-18 13:01:13 1014.600 35.4 20 9.1 2.0 NE     176.12
2012-Aug-18 14:01:17 1014.500 37.8 18 9.0 0.6 ENE     176.12
2012-Aug-18 15:01:13 1014.200 36.4 18 7.9         176.12
2012-Aug-18 16:01:10 1013.700 35.3 21 9.6         176.12
2012-Aug-18 17:01:14 1014.000 35.6 21 9.8 4.6 ENE     176.12
2012-Aug-18 18:01:16 1014.800 32.6 22 8.0         176.12
2012-Aug-18 19:01:17 1014.800 29.6 29 9.6         176.12
2012-Aug-18 20:01:14 1014.800 28.1 35 11.1         176.12
2012-Aug-18 21:01:14 1015.600 25.7 38 10.3         176.12
2012-Aug-18 22:01:12 1015.900 22.8 45 10.2         176.12
2012-Aug-18 23:01:17 1016.200 21.0 48 9.5         176.12

Temperatura Máxima:37°    Temperatura Mínima:16°
Presión Máxima:1016.200 Hpa    Presión Mínima:1013.700 Hpa


Volver